sensor_id;sensor_type;location;lat;lon;timestamp;P1;durP1;ratioP1;P2;durP2;ratioP2
69799;SDS011;67217;51.008;4.644;2023-01-24T00:01:06;55.58;;;35.05;;
69799;SDS011;67217;51.008;4.644;2023-01-24T00:03:33;52.25;;;34.78;;
69799;SDS011;67217;51.008;4.644;2023-01-24T00:06:02;52.10;;;34.10;;
69799;SDS011;67217;51.008;4.644;2023-01-24T00:08:30;49.95;;;33.88;;
69799;SDS011;67217;51.008;4.644;2023-01-24T00:10:59;52.98;;;33.70;;
69799;SDS011;67217;51.008;4.644;2023-01-24T00:13:32;51.75;;;33.80;;
69799;SDS011;67217;51.008;4.644;2023-01-24T00:16:11;51.68;;;35.65;;
69799;SDS011;67217;51.008;4.644;2023-01-24T00:18:40;50.83;;;34.00;;
69799;SDS011;67217;51.008;4.644;2023-01-24T00:21:10;53.23;;;34.88;;
69799;SDS011;67217;51.008;4.644;2023-01-24T00:23:42;54.08;;;34.20;;
69799;SDS011;67217;51.008;4.644;2023-01-24T00:26:12;55.88;;;36.20;;
69799;SDS011;67217;51.008;4.644;2023-01-24T00:28:41;54.48;;;33.95;;
69799;SDS011;67217;51.008;4.644;2023-01-24T00:31:09;53.38;;;34.90;;
69799;SDS011;67217;51.008;4.644;2023-01-24T00:33:38;53.15;;;34.80;;
69799;SDS011;67217;51.008;4.644;2023-01-24T00:36:06;57.98;;;36.50;;
69799;SDS011;67217;51.008;4.644;2023-01-24T00:38:35;53.68;;;34.92;;
69799;SDS011;67217;51.008;4.644;2023-01-24T00:41:03;54.63;;;35.20;;
69799;SDS011;67217;51.008;4.644;2023-01-24T00:43:31;52.48;;;33.65;;
69799;SDS011;67217;51.008;4.644;2023-01-24T00:45:59;51.35;;;33.70;;
69799;SDS011;67217;51.008;4.644;2023-01-24T00:48:27;50.05;;;32.63;;
69799;SDS011;67217;51.008;4.644;2023-01-24T00:50:55;47.60;;;30.92;;
69799;SDS011;67217;51.008;4.644;2023-01-24T00:53:23;50.58;;;32.85;;
69799;SDS011;67217;51.008;4.644;2023-01-24T00:55:52;52.13;;;33.45;;
69799;SDS011;67217;51.008;4.644;2023-01-24T00:58:20;46.25;;;30.97;;
69799;SDS011;67217;51.008;4.644;2023-01-24T01:00:49;51.02;;;34.10;;
69799;SDS011;67217;51.008;4.644;2023-01-24T01:03:17;50.33;;;32.33;;
69799;SDS011;67217;51.008;4.644;2023-01-24T01:05:46;50.00;;;33.18;;
69799;SDS011;67217;51.008;4.644;2023-01-24T01:08:14;52.33;;;34.08;;
69799;SDS011;67217;51.008;4.644;2023-01-24T01:10:43;49.65;;;32.80;;
69799;SDS011;67217;51.008;4.644;2023-01-24T01:13:11;50.70;;;34.15;;
69799;SDS011;67217;51.008;4.644;2023-01-24T01:15:39;50.15;;;34.45;;
69799;SDS011;67217;51.008;4.644;2023-01-24T01:18:07;51.58;;;34.70;;
69799;SDS011;67217;51.008;4.644;2023-01-24T01:20:35;47.85;;;33.33;;
69799;SDS011;67217;51.008;4.644;2023-01-24T01:23:02;53.55;;;34.20;;
69799;SDS011;67217;51.008;4.644;2023-01-24T01:25:30;47.60;;;33.60;;
69799;SDS011;67217;51.008;4.644;2023-01-24T01:27:58;46.80;;;32.98;;
69799;SDS011;67217;51.008;4.644;2023-01-24T01:30:26;48.70;;;32.67;;
69799;SDS011;67217;51.008;4.644;2023-01-24T01:32:53;45.65;;;32.40;;
69799;SDS011;67217;51.008;4.644;2023-01-24T01:35:21;45.60;;;30.95;;
69799;SDS011;67217;51.008;4.644;2023-01-24T01:37:49;45.25;;;31.75;;
69799;SDS011;67217;51.008;4.644;2023-01-24T01:40:17;46.58;;;31.70;;
69799;SDS011;67217;51.008;4.644;2023-01-24T01:42:53;44.60;;;31.52;;
69799;SDS011;67217;51.008;4.644;2023-01-24T01:47:58;46.25;;;31.97;;
69799;SDS011;67217;51.008;4.644;2023-01-24T01:50:31;46.28;;;31.15;;
69799;SDS011;67217;51.008;4.644;2023-01-24T01:53:02;44.70;;;31.33;;
69799;SDS011;67217;51.008;4.644;2023-01-24T01:55:31;47.45;;;31.80;;
69799;SDS011;67217;51.008;4.644;2023-01-24T01:58:00;47.93;;;31.20;;
69799;SDS011;67217;51.008;4.644;2023-01-24T02:00:28;45.60;;;30.20;;
69799;SDS011;67217;51.008;4.644;2023-01-24T02:02:58;45.12;;;31.07;;
69799;SDS011;67217;51.008;4.644;2023-01-24T02:05:29;45.67;;;31.12;;
69799;SDS011;67217;51.008;4.644;2023-01-24T02:07:58;49.85;;;31.25;;
69799;SDS011;67217;51.008;4.644;2023-01-24T02:10:28;47.15;;;30.88;;
69799;SDS011;67217;51.008;4.644;2023-01-24T02:12:58;48.87;;;31.33;;
69799;SDS011;67217;51.008;4.644;2023-01-24T02:15:26;46.58;;;31.75;;
69799;SDS011;67217;51.008;4.644;2023-01-24T02:18:12;44.48;;;30.40;;
69799;SDS011;67217;51.008;4.644;2023-01-24T02:20:40;45.10;;;29.63;;
69799;SDS011;67217;51.008;4.644;2023-01-24T02:23:18;45.10;;;30.80;;
69799;SDS011;67217;51.008;4.644;2023-01-24T02:25:49;42.35;;;28.45;;
69799;SDS011;67217;51.008;4.644;2023-01-24T02:28:34;45.88;;;29.48;;
69799;SDS011;67217;51.008;4.644;2023-01-24T02:31:03;45.25;;;29.70;;
69799;SDS011;67217;51.008;4.644;2023-01-24T02:33:32;44.48;;;28.67;;
69799;SDS011;67217;51.008;4.644;2023-01-24T02:36:10;44.98;;;29.75;;
69799;SDS011;67217;51.008;4.644;2023-01-24T02:38:35;42.38;;;28.38;;
69799;SDS011;67217;51.008;4.644;2023-01-24T02:41:02;43.13;;;28.43;;
69799;SDS011;67217;51.008;4.644;2023-01-24T02:43:36;41.98;;;27.37;;
69799;SDS011;67217;51.008;4.644;2023-01-24T02:46:05;44.83;;;29.45;;
69799;SDS011;67217;51.008;4.644;2023-01-24T02:48:32;43.02;;;27.65;;
69799;SDS011;67217;51.008;4.644;2023-01-24T02:51:00;42.90;;;27.45;;
69799;SDS011;67217;51.008;4.644;2023-01-24T02:53:46;41.63;;;28.07;;
69799;SDS011;67217;51.008;4.644;2023-01-24T02:56:14;44.70;;;29.67;;
69799;SDS011;67217;51.008;4.644;2023-01-24T02:58:59;44.70;;;29.72;;
69799;SDS011;67217;51.008;4.644;2023-01-24T03:01:28;40.70;;;28.17;;
69799;SDS011;67217;51.008;4.644;2023-01-24T03:03:56;40.60;;;26.87;;
69799;SDS011;67217;51.008;4.644;2023-01-24T03:06:24;42.05;;;26.60;;
69799;SDS011;67217;51.008;4.644;2023-01-24T03:08:52;42.13;;;27.07;;
69799;SDS011;67217;51.008;4.644;2023-01-24T03:11:20;36.95;;;25.90;;
69799;SDS011;67217;51.008;4.644;2023-01-24T03:13:48;40.08;;;26.70;;
69799;SDS011;67217;51.008;4.644;2023-01-24T03:16:33;40.75;;;26.77;;
69799;SDS011;67217;51.008;4.644;2023-01-24T03:19:18;40.28;;;26.45;;
69799;SDS011;67217;51.008;4.644;2023-01-24T03:22:04;39.53;;;26.62;;
69799;SDS011;67217;51.008;4.644;2023-01-24T03:24:49;40.63;;;26.70;;
69799;SDS011;67217;51.008;4.644;2023-01-24T03:27:37;42.05;;;26.77;;
69799;SDS011;67217;51.008;4.644;2023-01-24T03:30:22;40.70;;;27.22;;
69799;SDS011;67217;51.008;4.644;2023-01-24T03:33:08;38.33;;;26.02;;
69799;SDS011;67217;51.008;4.644;2023-01-24T03:35:53;40.35;;;26.40;;
69799;SDS011;67217;51.008;4.644;2023-01-24T03:38:21;39.65;;;26.17;;
69799;SDS011;67217;51.008;4.644;2023-01-24T03:41:08;38.53;;;25.72;;
69799;SDS011;67217;51.008;4.644;2023-01-24T03:43:36;41.40;;;27.65;;
69799;SDS011;67217;51.008;4.644;2023-01-24T03:46:04;39.18;;;26.42;;
69799;SDS011;67217;51.008;4.644;2023-01-24T03:48:31;40.58;;;27.17;;
69799;SDS011;67217;51.008;4.644;2023-01-24T03:51:03;43.13;;;28.80;;
69799;SDS011;67217;51.008;4.644;2023-01-24T03:53:49;40.60;;;27.32;;
69799;SDS011;67217;51.008;4.644;2023-01-24T03:56:17;42.17;;;27.40;;
69799;SDS011;67217;51.008;4.644;2023-01-24T03:58:45;40.98;;;27.62;;
69799;SDS011;67217;51.008;4.644;2023-01-24T04:01:13;39.25;;;27.07;;
69799;SDS011;67217;51.008;4.644;2023-01-24T04:03:40;39.00;;;28.25;;
69799;SDS011;67217;51.008;4.644;2023-01-24T04:06:08;40.20;;;28.10;;
69799;SDS011;67217;51.008;4.644;2023-01-24T04:08:36;40.38;;;27.65;;
69799;SDS011;67217;51.008;4.644;2023-01-24T04:11:04;39.67;;;27.52;;
69799;SDS011;67217;51.008;4.644;2023-01-24T04:13:32;41.63;;;29.12;;
69799;SDS011;67217;51.008;4.644;2023-01-24T04:15:59;42.35;;;28.30;;
69799;SDS011;67217;51.008;4.644;2023-01-24T04:18:27;40.65;;;28.27;;
69799;SDS011;67217;51.008;4.644;2023-01-24T04:20:56;40.33;;;27.60;;
69799;SDS011;67217;51.008;4.644;2023-01-24T04:23:26;42.53;;;27.58;;
69799;SDS011;67217;51.008;4.644;2023-01-24T04:25:54;39.73;;;28.07;;
69799;SDS011;67217;51.008;4.644;2023-01-24T04:28:23;39.75;;;28.40;;
69799;SDS011;67217;51.008;4.644;2023-01-24T04:30:58;42.62;;;28.73;;
69799;SDS011;67217;51.008;4.644;2023-01-24T04:33:27;41.95;;;28.57;;
69799;SDS011;67217;51.008;4.644;2023-01-24T04:35:58;43.05;;;28.85;;
69799;SDS011;67217;51.008;4.644;2023-01-24T04:38:26;40.23;;;27.60;;
69799;SDS011;67217;51.008;4.644;2023-01-24T04:41:01;42.80;;;28.35;;
69799;SDS011;67217;51.008;4.644;2023-01-24T04:43:28;40.03;;;27.45;;
69799;SDS011;67217;51.008;4.644;2023-01-24T04:45:57;41.48;;;27.87;;
69799;SDS011;67217;51.008;4.644;2023-01-24T04:48:25;41.58;;;27.42;;
69799;SDS011;67217;51.008;4.644;2023-01-24T04:50:57;42.27;;;28.17;;
69799;SDS011;67217;51.008;4.644;2023-01-24T04:53:23;40.63;;;27.58;;
69799;SDS011;67217;51.008;4.644;2023-01-24T04:55:51;42.75;;;28.30;;
69799;SDS011;67217;51.008;4.644;2023-01-24T04:58:20;41.05;;;28.00;;
69799;SDS011;67217;51.008;4.644;2023-01-24T05:00:48;43.10;;;28.00;;
69799;SDS011;67217;51.008;4.644;2023-01-24T05:03:16;43.52;;;28.40;;
69799;SDS011;67217;51.008;4.644;2023-01-24T05:05:48;43.95;;;28.98;;
69799;SDS011;67217;51.008;4.644;2023-01-24T05:08:17;41.92;;;28.40;;
69799;SDS011;67217;51.008;4.644;2023-01-24T05:10:45;43.87;;;28.95;;
69799;SDS011;67217;51.008;4.644;2023-01-24T05:13:13;43.52;;;28.32;;
69799;SDS011;67217;51.008;4.644;2023-01-24T05:15:48;42.75;;;29.32;;
69799;SDS011;67217;51.008;4.644;2023-01-24T05:18:17;43.10;;;28.60;;
69799;SDS011;67217;51.008;4.644;2023-01-24T05:20:45;46.40;;;28.47;;
69799;SDS011;67217;51.008;4.644;2023-01-24T05:23:13;44.53;;;28.30;;
69799;SDS011;67217;51.008;4.644;2023-01-24T05:25:41;48.83;;;30.35;;
69799;SDS011;67217;51.008;4.644;2023-01-24T05:28:09;46.33;;;29.60;;
69799;SDS011;67217;51.008;4.644;2023-01-24T05:30:36;47.13;;;30.65;;
69799;SDS011;67217;51.008;4.644;2023-01-24T05:33:04;50.23;;;31.40;;
69799;SDS011;67217;51.008;4.644;2023-01-24T05:35:34;52.40;;;32.20;;
69799;SDS011;67217;51.008;4.644;2023-01-24T05:38:01;50.00;;;31.57;;
69799;SDS011;67217;51.008;4.644;2023-01-24T05:40:30;50.67;;;32.23;;
69799;SDS011;67217;51.008;4.644;2023-01-24T05:42:58;47.83;;;29.82;;
69799;SDS011;67217;51.008;4.644;2023-01-24T05:45:25;49.67;;;31.93;;
69799;SDS011;67217;51.008;4.644;2023-01-24T05:47:54;51.73;;;33.00;;
69799;SDS011;67217;51.008;4.644;2023-01-24T05:50:22;49.73;;;31.20;;
69799;SDS011;67217;51.008;4.644;2023-01-24T05:52:50;54.98;;;33.63;;
69799;SDS011;67217;51.008;4.644;2023-01-24T05:55:18;54.65;;;33.78;;
69799;SDS011;67217;51.008;4.644;2023-01-24T05:57:46;54.27;;;33.95;;
69799;SDS011;67217;51.008;4.644;2023-01-24T06:00:14;58.45;;;36.08;;
69799;SDS011;67217;51.008;4.644;2023-01-24T06:02:42;55.30;;;35.05;;
69799;SDS011;67217;51.008;4.644;2023-01-24T06:05:10;55.25;;;34.60;;
69799;SDS011;67217;51.008;4.644;2023-01-24T06:07:38;56.53;;;34.33;;
69799;SDS011;67217;51.008;4.644;2023-01-24T06:10:05;57.23;;;36.10;;
69799;SDS011;67217;51.008;4.644;2023-01-24T06:12:33;57.93;;;35.83;;
69799;SDS011;67217;51.008;4.644;2023-01-24T06:15:01;57.80;;;35.17;;
69799;SDS011;67217;51.008;4.644;2023-01-24T06:17:29;59.15;;;35.33;;
69799;SDS011;67217;51.008;4.644;2023-01-24T06:19:57;59.88;;;37.00;;
69799;SDS011;67217;51.008;4.644;2023-01-24T06:22:30;58.55;;;35.92;;
69799;SDS011;67217;51.008;4.644;2023-01-24T06:25:02;59.83;;;37.80;;
69799;SDS011;67217;51.008;4.644;2023-01-24T06:27:30;62.75;;;37.53;;
69799;SDS011;67217;51.008;4.644;2023-01-24T06:29:58;60.75;;;36.15;;
69799;SDS011;67217;51.008;4.644;2023-01-24T06:32:34;59.33;;;36.88;;
69799;SDS011;67217;51.008;4.644;2023-01-24T06:40:17;59.60;;;38.35;;
69799;SDS011;67217;51.008;4.644;2023-01-24T06:42:48;61.68;;;38.65;;
69799;SDS011;67217;51.008;4.644;2023-01-24T06:45:16;67.60;;;38.98;;
69799;SDS011;67217;51.008;4.644;2023-01-24T06:47:44;65.57;;;38.85;;
69799;SDS011;67217;51.008;4.644;2023-01-24T06:50:16;64.25;;;41.37;;
69799;SDS011;67217;51.008;4.644;2023-01-24T06:52:49;66.02;;;40.20;;
69799;SDS011;67217;51.008;4.644;2023-01-24T06:55:18;66.12;;;41.08;;
69799;SDS011;67217;51.008;4.644;2023-01-24T06:57:46;65.95;;;41.95;;
69799;SDS011;67217;51.008;4.644;2023-01-24T07:00:16;65.75;;;41.00;;
69799;SDS011;67217;51.008;4.644;2023-01-24T07:02:44;63.83;;;40.58;;
69799;SDS011;67217;51.008;4.644;2023-01-24T07:05:12;66.00;;;41.88;;
69799;SDS011;67217;51.008;4.644;2023-01-24T07:07:40;63.33;;;40.60;;
69799;SDS011;67217;51.008;4.644;2023-01-24T07:10:09;66.75;;;42.73;;
69799;SDS011;67217;51.008;4.644;2023-01-24T07:12:37;70.55;;;43.02;;
69799;SDS011;67217;51.008;4.644;2023-01-24T07:15:07;71.10;;;42.08;;
69799;SDS011;67217;51.008;4.644;2023-01-24T07:17:35;65.20;;;41.65;;
69799;SDS011;67217;51.008;4.644;2023-01-24T07:20:03;69.10;;;43.60;;
69799;SDS011;67217;51.008;4.644;2023-01-24T07:22:32;70.42;;;43.45;;
69799;SDS011;67217;51.008;4.644;2023-01-24T07:25:01;69.53;;;43.68;;
69799;SDS011;67217;51.008;4.644;2023-01-24T07:27:29;70.03;;;43.20;;
69799;SDS011;67217;51.008;4.644;2023-01-24T07:29:57;71.25;;;43.52;;
69799;SDS011;67217;51.008;4.644;2023-01-24T07:32:25;73.75;;;44.05;;
69799;SDS011;67217;51.008;4.644;2023-01-24T07:34:53;71.95;;;44.05;;
69799;SDS011;67217;51.008;4.644;2023-01-24T07:37:21;73.17;;;45.58;;
69799;SDS011;67217;51.008;4.644;2023-01-24T07:39:49;65.70;;;41.92;;
69799;SDS011;67217;51.008;4.644;2023-01-24T07:42:17;69.82;;;43.45;;
69799;SDS011;67217;51.008;4.644;2023-01-24T07:44:45;62.70;;;41.53;;
69799;SDS011;67217;51.008;4.644;2023-01-24T07:47:13;65.70;;;43.05;;
69799;SDS011;67217;51.008;4.644;2023-01-24T07:49:41;65.22;;;42.23;;
69799;SDS011;67217;51.008;4.644;2023-01-24T07:52:09;68.50;;;43.58;;
69799;SDS011;67217;51.008;4.644;2023-01-24T07:54:36;71.17;;;44.73;;
69799;SDS011;67217;51.008;4.644;2023-01-24T07:57:04;67.78;;;41.88;;
69799;SDS011;67217;51.008;4.644;2023-01-24T07:59:33;67.45;;;43.92;;
69799;SDS011;67217;51.008;4.644;2023-01-24T08:02:01;66.60;;;41.88;;
69799;SDS011;67217;51.008;4.644;2023-01-24T08:04:29;63.38;;;41.98;;
69799;SDS011;67217;51.008;4.644;2023-01-24T08:06:57;65.05;;;42.90;;
69799;SDS011;67217;51.008;4.644;2023-01-24T08:09:43;62.85;;;42.08;;
69799;SDS011;67217;51.008;4.644;2023-01-24T08:12:12;66.47;;;42.27;;
69799;SDS011;67217;51.008;4.644;2023-01-24T08:14:40;59.60;;;40.38;;
69799;SDS011;67217;51.008;4.644;2023-01-24T08:17:08;61.68;;;40.70;;
69799;SDS011;67217;51.008;4.644;2023-01-24T08:19:36;67.80;;;42.45;;
69799;SDS011;67217;51.008;4.644;2023-01-24T08:22:05;66.55;;;43.23;;
69799;SDS011;67217;51.008;4.644;2023-01-24T08:24:33;64.55;;;42.80;;
69799;SDS011;67217;51.008;4.644;2023-01-24T08:27:01;66.77;;;43.65;;
69799;SDS011;67217;51.008;4.644;2023-01-24T08:29:31;70.85;;;44.25;;
69799;SDS011;67217;51.008;4.644;2023-01-24T08:31:59;68.87;;;43.80;;
69799;SDS011;67217;51.008;4.644;2023-01-24T08:34:27;70.45;;;42.62;;
69799;SDS011;67217;51.008;4.644;2023-01-24T08:36:54;72.08;;;46.20;;
69799;SDS011;67217;51.008;4.644;2023-01-24T08:39:22;74.00;;;45.58;;
69799;SDS011;67217;51.008;4.644;2023-01-24T08:41:50;76.57;;;45.98;;
69799;SDS011;67217;51.008;4.644;2023-01-24T08:44:18;70.30;;;45.10;;
69799;SDS011;67217;51.008;4.644;2023-01-24T08:46:45;77.25;;;48.13;;
69799;SDS011;67217;51.008;4.644;2023-01-24T08:49:13;76.53;;;47.60;;
69799;SDS011;67217;51.008;4.644;2023-01-24T08:51:41;72.67;;;45.63;;
69799;SDS011;67217;51.008;4.644;2023-01-24T08:54:09;75.85;;;47.58;;
69799;SDS011;67217;51.008;4.644;2023-01-24T08:56:37;71.80;;;46.10;;
69799;SDS011;67217;51.008;4.644;2023-01-24T08:59:04;75.05;;;48.68;;
69799;SDS011;67217;51.008;4.644;2023-01-24T09:01:33;77.03;;;48.87;;
69799;SDS011;67217;51.008;4.644;2023-01-24T09:04:01;75.92;;;48.38;;
69799;SDS011;67217;51.008;4.644;2023-01-24T09:06:30;72.53;;;48.15;;
69799;SDS011;67217;51.008;4.644;2023-01-24T09:08:58;78.25;;;49.13;;
69799;SDS011;67217;51.008;4.644;2023-01-24T09:11:26;74.75;;;47.33;;
69799;SDS011;67217;51.008;4.644;2023-01-24T09:13:53;76.55;;;47.50;;
69799;SDS011;67217;51.008;4.644;2023-01-24T09:16:21;79.12;;;48.48;;
69799;SDS011;67217;51.008;4.644;2023-01-24T09:18:49;72.92;;;46.13;;
69799;SDS011;67217;51.008;4.644;2023-01-24T09:21:17;67.67;;;44.88;;
69799;SDS011;67217;51.008;4.644;2023-01-24T09:23:45;72.37;;;45.30;;
69799;SDS011;67217;51.008;4.644;2023-01-24T09:26:13;71.85;;;43.08;;
69799;SDS011;67217;51.008;4.644;2023-01-24T09:28:41;69.00;;;44.00;;
69799;SDS011;67217;51.008;4.644;2023-01-24T09:31:09;72.00;;;44.60;;
69799;SDS011;67217;51.008;4.644;2023-01-24T09:33:38;70.80;;;45.75;;
69799;SDS011;67217;51.008;4.644;2023-01-24T09:36:06;62.50;;;41.48;;
69799;SDS011;67217;51.008;4.644;2023-01-24T09:38:35;63.10;;;41.30;;
69799;SDS011;67217;51.008;4.644;2023-01-24T09:44:02;64.35;;;40.48;;
69799;SDS011;67217;51.008;4.644;2023-01-24T09:46:35;67.25;;;41.55;;
69799;SDS011;67217;51.008;4.644;2023-01-24T09:49:21;60.33;;;39.08;;
69799;SDS011;67217;51.008;4.644;2023-01-24T09:51:47;61.08;;;39.55;;
69799;SDS011;67217;51.008;4.644;2023-01-24T09:54:23;60.60;;;40.40;;
69799;SDS011;67217;51.008;4.644;2023-01-24T09:57:07;66.77;;;42.27;;
69799;SDS011;67217;51.008;4.644;2023-01-24T09:59:54;62.00;;;40.95;;
69799;SDS011;67217;51.008;4.644;2023-01-24T10:02:26;61.92;;;40.52;;
69799;SDS011;67217;51.008;4.644;2023-01-24T10:04:54;60.38;;;39.98;;
69799;SDS011;67217;51.008;4.644;2023-01-24T10:07:28;62.98;;;41.37;;
69799;SDS011;67217;51.008;4.644;2023-01-24T10:10:14;62.95;;;41.55;;
69799;SDS011;67217;51.008;4.644;2023-01-24T10:12:51;66.15;;;41.75;;
69799;SDS011;67217;51.008;4.644;2023-01-24T10:15:30;60.17;;;41.05;;
69799;SDS011;67217;51.008;4.644;2023-01-24T10:23:38;59.95;;;39.83;;
69799;SDS011;67217;51.008;4.644;2023-01-24T10:26:15;59.98;;;39.63;;
69799;SDS011;67217;51.008;4.644;2023-01-24T10:28:51;63.68;;;41.88;;
69799;SDS011;67217;51.008;4.644;2023-01-24T10:31:25;63.85;;;42.00;;
69799;SDS011;67217;51.008;4.644;2023-01-24T10:34:13;64.37;;;40.75;;
69799;SDS011;67217;51.008;4.644;2023-01-24T10:37:05;64.25;;;41.23;;
69799;SDS011;67217;51.008;4.644;2023-01-24T10:39:37;63.58;;;40.63;;
69799;SDS011;67217;51.008;4.644;2023-01-24T10:45:00;62.03;;;42.55;;
69799;SDS011;67217;51.008;4.644;2023-01-24T10:50:14;64.45;;;43.02;;
69799;SDS011;67217;51.008;4.644;2023-01-24T10:55:31;64.87;;;41.45;;
69799;SDS011;67217;51.008;4.644;2023-01-24T10:58:24;61.80;;;39.63;;
69799;SDS011;67217;51.008;4.644;2023-01-24T11:00:54;59.88;;;39.00;;
69799;SDS011;67217;51.008;4.644;2023-01-24T11:03:22;58.90;;;39.92;;
69799;SDS011;67217;51.008;4.644;2023-01-24T11:05:53;55.17;;;37.55;;
69799;SDS011;67217;51.008;4.644;2023-01-24T11:08:23;58.28;;;39.30;;
69799;SDS011;67217;51.008;4.644;2023-01-24T11:10:56;58.73;;;39.18;;
69799;SDS011;67217;51.008;4.644;2023-01-24T11:13:32;60.60;;;39.80;;
69799;SDS011;67217;51.008;4.644;2023-01-24T11:18:47;55.95;;;38.20;;
69799;SDS011;67217;51.008;4.644;2023-01-24T11:21:26;56.15;;;37.83;;
69799;SDS011;67217;51.008;4.644;2023-01-24T11:23:59;53.38;;;36.33;;
69799;SDS011;67217;51.008;4.644;2023-01-24T11:26:38;57.43;;;38.45;;
69799;SDS011;67217;51.008;4.644;2023-01-24T11:29:15;56.80;;;37.70;;
69799;SDS011;67217;51.008;4.644;2023-01-24T11:31:45;54.27;;;36.98;;
69799;SDS011;67217;51.008;4.644;2023-01-24T11:34:24;51.80;;;35.75;;
69799;SDS011;67217;51.008;4.644;2023-01-24T11:42:36;49.98;;;34.35;;
69799;SDS011;67217;51.008;4.644;2023-01-24T11:47:56;50.08;;;34.70;;
69799;SDS011;67217;51.008;4.644;2023-01-24T11:53:11;50.80;;;33.53;;
69799;SDS011;67217;51.008;4.644;2023-01-24T12:01:32;52.93;;;35.73;;
69799;SDS011;67217;51.008;4.644;2023-01-24T12:09:42;45.92;;;31.90;;
69799;SDS011;67217;51.008;4.644;2023-01-24T12:12:06;47.35;;;31.95;;
69799;SDS011;67217;51.008;4.644;2023-01-24T12:18:01;53.45;;;35.15;;
69799;SDS011;67217;51.008;4.644;2023-01-24T12:22:54;47.50;;;32.88;;
69799;SDS011;67217;51.008;4.644;2023-01-24T12:27:56;49.23;;;33.40;;
69799;SDS011;67217;51.008;4.644;2023-01-24T12:35:40;47.27;;;32.38;;
69799;SDS011;67217;51.008;4.644;2023-01-24T12:43:58;48.80;;;33.30;;
69799;SDS011;67217;51.008;4.644;2023-01-24T12:46:45;48.30;;;34.00;;
69799;SDS011;67217;51.008;4.644;2023-01-24T12:52:22;52.93;;;35.15;;
69799;SDS011;67217;51.008;4.644;2023-01-24T12:57:38;55.38;;;37.08;;
69799;SDS011;67217;51.008;4.644;2023-01-24T13:00:20;60.05;;;38.35;;
69799;SDS011;67217;51.008;4.644;2023-01-24T13:08:05;58.17;;;38.92;;
69799;SDS011;67217;51.008;4.644;2023-01-24T13:10:39;57.48;;;38.33;;
69799;SDS011;67217;51.008;4.644;2023-01-24T13:13:13;58.80;;;39.27;;
69799;SDS011;67217;51.008;4.644;2023-01-24T13:15:53;56.88;;;37.60;;
69799;SDS011;67217;51.008;4.644;2023-01-24T13:30:03;58.50;;;39.03;;
69799;SDS011;67217;51.008;4.644;2023-01-24T13:32:46;59.25;;;38.13;;
69799;SDS011;67217;51.008;4.644;2023-01-24T13:37:54;55.63;;;37.70;;
69799;SDS011;67217;51.008;4.644;2023-01-24T13:40:22;65.30;;;40.65;;
69799;SDS011;67217;51.008;4.644;2023-01-24T13:42:53;62.93;;;40.65;;
69799;SDS011;67217;51.008;4.644;2023-01-24T13:47:55;60.00;;;40.10;;
69799;SDS011;67217;51.008;4.644;2023-01-24T13:50:27;61.77;;;41.08;;
69799;SDS011;67217;51.008;4.644;2023-01-24T14:00:27;64.80;;;40.30;;
69799;SDS011;67217;51.008;4.644;2023-01-24T14:03:12;61.48;;;40.25;;
69799;SDS011;67217;51.008;4.644;2023-01-24T14:06:04;60.03;;;40.35;;
69799;SDS011;67217;51.008;4.644;2023-01-24T14:08:35;61.13;;;40.15;;
69799;SDS011;67217;51.008;4.644;2023-01-24T14:21:50;62.08;;;41.40;;
69799;SDS011;67217;51.008;4.644;2023-01-24T14:27:26;64.10;;;40.88;;
69799;SDS011;67217;51.008;4.644;2023-01-24T14:29:57;62.17;;;40.92;;
69799;SDS011;67217;51.008;4.644;2023-01-24T14:32:33;60.43;;;41.45;;
69799;SDS011;67217;51.008;4.644;2023-01-24T14:35:17;62.53;;;40.63;;
69799;SDS011;67217;51.008;4.644;2023-01-24T14:37:45;67.00;;;40.98;;
69799;SDS011;67217;51.008;4.644;2023-01-24T14:42:59;63.20;;;41.42;;
69799;SDS011;67217;51.008;4.644;2023-01-24T14:45:30;60.35;;;40.35;;
69799;SDS011;67217;51.008;4.644;2023-01-24T14:47:58;59.58;;;41.15;;
69799;SDS011;67217;51.008;4.644;2023-01-24T14:50:29;67.53;;;42.03;;
69799;SDS011;67217;51.008;4.644;2023-01-24T14:52:59;66.15;;;41.45;;
69799;SDS011;67217;51.008;4.644;2023-01-24T14:55:30;71.70;;;44.63;;
69799;SDS011;67217;51.008;4.644;2023-01-24T15:00:53;62.43;;;41.45;;
69799;SDS011;67217;51.008;4.644;2023-01-24T15:03:23;58.02;;;39.88;;
69799;SDS011;67217;51.008;4.644;2023-01-24T15:06:02;61.23;;;40.85;;
69799;SDS011;67217;51.008;4.644;2023-01-24T15:08:32;62.20;;;41.15;;
69799;SDS011;67217;51.008;4.644;2023-01-24T15:11:01;59.65;;;39.25;;
69799;SDS011;67217;51.008;4.644;2023-01-24T15:13:51;57.55;;;39.65;;
69799;SDS011;67217;51.008;4.644;2023-01-24T15:16:21;57.93;;;40.28;;
69799;SDS011;67217;51.008;4.644;2023-01-24T15:18:51;56.18;;;39.30;;
69799;SDS011;67217;51.008;4.644;2023-01-24T15:23:57;59.20;;;40.08;;
69799;SDS011;67217;51.008;4.644;2023-01-24T15:46:22;61.20;;;40.98;;
69799;SDS011;67217;51.008;4.644;2023-01-24T15:49:19;63.70;;;42.78;;
69799;SDS011;67217;51.008;4.644;2023-01-24T15:52:03;65.05;;;42.98;;
69799;SDS011;67217;51.008;4.644;2023-01-24T15:54:32;64.85;;;41.92;;
69799;SDS011;67217;51.008;4.644;2023-01-24T15:57:01;63.05;;;42.17;;
69799;SDS011;67217;51.008;4.644;2023-01-24T15:59:31;62.85;;;43.15;;
69799;SDS011;67217;51.008;4.644;2023-01-24T16:02:00;64.90;;;43.55;;
69799;SDS011;67217;51.008;4.644;2023-01-24T16:04:28;59.88;;;41.28;;
69799;SDS011;67217;51.008;4.644;2023-01-24T16:06:56;58.35;;;40.73;;
69799;SDS011;67217;51.008;4.644;2023-01-24T16:09:24;61.65;;;42.55;;
69799;SDS011;67217;51.008;4.644;2023-01-24T16:11:51;64.35;;;44.35;;
69799;SDS011;67217;51.008;4.644;2023-01-24T16:14:20;67.50;;;44.03;;
69799;SDS011;67217;51.008;4.644;2023-01-24T16:16:50;63.98;;;43.48;;
69799;SDS011;67217;51.008;4.644;2023-01-24T16:19:21;67.75;;;43.87;;
69799;SDS011;67217;51.008;4.644;2023-01-24T16:21:50;65.75;;;43.90;;
69799;SDS011;67217;51.008;4.644;2023-01-24T16:24:18;64.20;;;42.70;;
69799;SDS011;67217;51.008;4.644;2023-01-24T16:26:50;66.80;;;45.12;;
69799;SDS011;67217;51.008;4.644;2023-01-24T16:29:20;67.67;;;45.10;;
69799;SDS011;67217;51.008;4.644;2023-01-24T16:31:46;65.65;;;43.65;;
69799;SDS011;67217;51.008;4.644;2023-01-24T16:34:14;66.77;;;44.58;;
69799;SDS011;67217;51.008;4.644;2023-01-24T16:36:44;71.67;;;44.45;;
69799;SDS011;67217;51.008;4.644;2023-01-24T16:39:16;67.10;;;44.13;;
69799;SDS011;67217;51.008;4.644;2023-01-24T16:41:45;69.45;;;46.50;;
69799;SDS011;67217;51.008;4.644;2023-01-24T16:44:14;65.50;;;43.93;;
69799;SDS011;67217;51.008;4.644;2023-01-24T16:46:51;64.50;;;45.90;;
69799;SDS011;67217;51.008;4.644;2023-01-24T16:49:16;65.75;;;46.23;;
69799;SDS011;67217;51.008;4.644;2023-01-24T16:51:44;68.57;;;46.20;;
69799;SDS011;67217;51.008;4.644;2023-01-24T16:54:12;69.37;;;46.58;;
69799;SDS011;67217;51.008;4.644;2023-01-24T16:56:41;65.40;;;46.28;;
69799;SDS011;67217;51.008;4.644;2023-01-24T16:59:10;75.50;;;48.20;;
69799;SDS011;67217;51.008;4.644;2023-01-24T17:01:39;72.15;;;47.03;;
69799;SDS011;67217;51.008;4.644;2023-01-24T17:04:07;70.30;;;47.93;;
69799;SDS011;67217;51.008;4.644;2023-01-24T17:06:35;69.03;;;46.68;;
69799;SDS011;67217;51.008;4.644;2023-01-24T17:09:03;75.87;;;48.38;;